createdAt,value
2022-08-22T00:02:03.993Z,100.00
2022-08-22T00:02:49.934Z,92.04
2022-08-22T00:02:56.460Z,87.53
2022-08-22T00:02:57.438Z,94.88
2022-08-22T00:04:36.422Z,100.00
2022-08-22T00:07:13.613Z,100.00
2022-08-22T00:09:49.389Z,100.00
2022-08-22T00:12:22.525Z,100.00
2022-08-22T00:14:59.814Z,100.00
2022-08-22T00:17:36.157Z,100.00
2022-08-22T00:20:10.283Z,100.00
2022-08-22T00:22:47.679Z,100.00
2022-08-22T00:25:33.481Z,100.00
2022-08-22T00:28:06.149Z,100.00
2022-08-22T00:30:43.674Z,100.00
2022-08-22T00:33:22.841Z,100.00
2022-08-22T00:36:00.947Z,100.00
2022-08-22T00:38:34.693Z,100.00
2022-08-22T00:41:08.501Z,100.00
2022-08-22T00:44:18.108Z,100.00
2022-08-22T00:47:14.612Z,100.00
2022-08-22T00:50:15.388Z,100.00
2022-08-22T00:53:03.986Z,100.00
2022-08-22T00:55:44.577Z,100.00
2022-08-22T00:58:45.352Z,100.00
2022-08-22T01:01:17.701Z,100.00
2022-08-22T01:04:03.597Z,100.00
2022-08-22T01:06:43.742Z,100.00
2022-08-22T01:09:25.376Z,100.00
2022-08-22T01:12:15.656Z,100.00
2022-08-22T01:14:50.305Z,100.00
2022-08-22T01:17:50.323Z,100.00
2022-08-22T01:20:51.609Z,100.00
2022-08-22T01:23:56.246Z,100.00
2022-08-22T01:27:00.372Z,100.00
2022-08-22T01:30:02.705Z,100.00
2022-08-22T01:33:18.129Z,100.00
2022-08-22T01:36:04.831Z,100.00
2022-08-22T01:38:53.322Z,100.00
2022-08-22T01:41:59.753Z,100.00
2022-08-22T01:44:47.150Z,100.00
2022-08-22T01:47:19.960Z,100.00
2022-08-22T01:49:53.496Z,100.00
2022-08-22T01:52:38.561Z,100.00
2022-08-22T01:55:11.272Z,100.00
2022-08-22T01:57:52.542Z,100.00
2022-08-22T02:00:34.913Z,100.00
2022-08-22T02:03:13.478Z,100.00
2022-08-22T02:05:50.905Z,100.00
2022-08-22T02:08:31.203Z,100.00
2022-08-22T02:11:05.928Z,100.00
2022-08-22T02:13:46.269Z,100.00
2022-08-22T02:16:20.909Z,100.00
2022-08-22T02:19:04.637Z,100.00
2022-08-22T02:21:43.937Z,100.00
2022-08-22T02:24:29.424Z,100.00
2022-08-22T02:27:13.984Z,100.00
2022-08-22T02:29:49.226Z,100.00
2022-08-22T02:32:23.477Z,100.00
2022-08-22T02:35:01.178Z,100.00
2022-08-22T02:37:38.060Z,100.00
2022-08-22T02:40:15.719Z,100.00
2022-08-22T02:42:49.769Z,100.00
2022-08-22T02:45:25.961Z,100.00
2022-08-22T02:48:02.123Z,100.00
2022-08-22T02:50:39.042Z,100.00
2022-08-22T02:53:14.516Z,100.00
2022-08-22T02:55:51.536Z,100.00
2022-08-22T02:58:29.054Z,100.00
2022-08-22T03:01:17.595Z,100.00
2022-08-22T03:03:48.331Z,100.00
2022-08-22T03:06:37.402Z,100.00
2022-08-22T03:09:22.992Z,100.00
2022-08-22T03:12:03.900Z,100.00
2022-08-22T03:14:39.919Z,100.00
2022-08-22T03:17:12.589Z,100.00
2022-08-22T03:19:52.677Z,100.00
2022-08-22T03:22:27.461Z,100.00
2022-08-22T03:25:03.847Z,100.00
2022-08-22T03:27:41.716Z,100.00
2022-08-22T03:30:16.764Z,100.00
2022-08-22T03:32:50.726Z,100.00
2022-08-22T03:35:29.737Z,100.00
2022-08-22T03:38:12.305Z,100.00
2022-08-22T03:40:53.990Z,100.00
2022-08-22T03:43:58.240Z,100.00
2022-08-22T03:46:52.869Z,100.00
2022-08-22T03:49:59.753Z,100.00
2022-08-22T03:53:18.775Z,100.00
2022-08-22T03:56:25.566Z,100.00
2022-08-22T03:59:28.133Z,100.00
2022-08-22T04:02:24.681Z,100.00
2022-08-22T04:05:33.749Z,100.00
2022-08-22T04:08:29.389Z,100.00
2022-08-22T04:11:21.349Z,100.00
2022-08-22T04:14:28.773Z,100.00
2022-08-22T04:17:15.265Z,100.00
2022-08-22T04:20:01.507Z,100.00
2022-08-22T04:22:58.289Z,100.00
2022-08-22T04:25:32.156Z,100.00
2022-08-22T04:28:06.985Z,100.00
2022-08-22T04:30:41.909Z,100.00
2022-08-22T04:33:17.452Z,100.00
2022-08-22T04:35:53.800Z,100.00
2022-08-22T04:38:28.629Z,100.00
2022-08-22T04:41:04.581Z,100.00
2022-08-22T04:43:37.173Z,100.00
2022-08-22T04:46:12.981Z,100.00
2022-08-22T04:48:45.569Z,100.00
2022-08-22T04:51:21.920Z,100.00
2022-08-22T04:54:27.039Z,100.00
2022-08-22T04:57:17.300Z,100.00
2022-08-22T04:59:45.698Z,100.00
2022-08-22T05:02:23.505Z,100.00
2022-08-22T05:04:59.064Z,100.00
2022-08-22T05:07:33.906Z,100.00
2022-08-22T05:10:12.243Z,100.00
2022-08-22T05:12:44.445Z,99.00
2022-08-22T05:15:19.046Z,93.15
2022-08-22T05:17:56.802Z,85.47
2022-08-22T05:20:28.788Z,83.16
2022-08-22T05:23:00.379Z,77.00
2022-08-22T05:25:31.038Z,71.88
2022-08-22T05:28:08.446Z,68.00
2022-08-22T05:30:36.916Z,65.23
2022-08-22T05:33:14.658Z,63.61
2022-08-22T05:35:50.780Z,62.02
2022-08-22T05:38:24.239Z,60.64
2022-08-22T05:40:58.607Z,59.31
2022-08-22T05:43:27.419Z,58.71
2022-08-22T05:45:58.424Z,57.88
2022-08-22T05:48:36.530Z,56.09
2022-08-22T05:51:14.130Z,55.33
2022-08-22T05:53:47.184Z,53.29
2022-08-22T05:56:19.732Z,51.84
2022-08-22T05:58:52.846Z,51.72
2022-08-22T06:01:27.529Z,50.31
2022-08-22T06:04:02.417Z,48.51
2022-08-22T06:06:33.593Z,48.33
2022-08-22T06:09:06.876Z,47.16
2022-08-22T06:11:40.920Z,45.17
2022-08-22T06:14:24.879Z,46.25
2022-08-22T06:16:59.836Z,42.14
2022-08-22T06:19:29.414Z,44.82
2022-08-22T06:21:58.288Z,48.04
2022-08-22T06:24:28.618Z,47.88
2022-08-22T06:27:02.596Z,44.26
2022-08-22T06:29:38.552Z,44.95
2022-08-22T06:32:13.487Z,48.48
2022-08-22T06:34:46.266Z,46.48
2022-08-22T06:37:24.577Z,48.53
2022-08-22T06:39:54.491Z,46.57
2022-08-22T06:42:26.044Z,47.15
2022-08-22T06:44:58.273Z,42.83
2022-08-22T06:47:28.378Z,45.37
2022-08-22T06:50:02.476Z,45.33
2022-08-22T06:52:35.973Z,45.49
2022-08-22T06:55:07.772Z,41.93
2022-08-22T06:57:38.276Z,43.17
2022-08-22T07:00:10.178Z,43.13
2022-08-22T07:02:43.162Z,44.63
2022-08-22T07:05:17.790Z,46.34
2022-08-22T07:07:46.052Z,44.43
2022-08-22T07:10:16.021Z,47.61
2022-08-22T07:12:47.213Z,44.07
2022-08-22T07:15:32.344Z,45.97
2022-08-22T07:18:04.280Z,44.84
2022-08-22T07:20:38.365Z,44.14
2022-08-22T07:23:09.741Z,42.51
2022-08-22T07:25:51.616Z,43.84
2022-08-22T07:28:31.790Z,44.35
2022-08-22T07:31:16.857Z,42.00
2022-08-22T07:33:49.688Z,43.69
2022-08-22T07:36:25.044Z,43.52
2022-08-22T07:39:05.278Z,46.69
2022-08-22T07:41:52.524Z,46.60
2022-08-22T07:44:23.680Z,48.45
2022-08-22T07:46:58.201Z,48.73
2022-08-22T07:49:30.584Z,49.73
2022-08-22T07:52:04.852Z,49.89
2022-08-22T07:54:40.853Z,49.92
2022-08-22T07:57:12.849Z,50.39
2022-08-22T07:59:46.933Z,49.24
2022-08-22T08:02:16.973Z,50.13
2022-08-22T08:04:45.145Z,48.49
2022-08-22T08:07:17.853Z,49.11
2022-08-22T08:09:50.812Z,49.98
2022-08-22T08:12:21.989Z,49.49
2022-08-22T08:14:56.609Z,48.22
2022-08-22T08:17:31.866Z,47.26
2022-08-22T08:20:04.519Z,46.82
2022-08-22T08:22:34.548Z,44.67
2022-08-22T08:25:03.497Z,45.14
2022-08-22T08:27:52.631Z,45.46
2022-08-22T08:30:24.901Z,42.98
2022-08-22T08:32:57.543Z,43.61
2022-08-22T08:36:02.810Z,44.80
2022-08-22T08:38:37.841Z,45.12
2022-08-22T08:41:29.711Z,45.48
2022-08-22T08:44:06.881Z,43.14
2022-08-22T08:46:59.935Z,44.29
2022-08-22T08:49:44.312Z,43.46
2022-08-22T08:52:40.538Z,44.61
2022-08-22T08:58:34.785Z,47.00
2022-08-22T09:01:16.814Z,47.32
2022-08-22T09:04:16.413Z,47.99
2022-08-22T09:07:16.577Z,48.25
2022-08-22T09:09:58.460Z,48.37
2022-08-22T09:12:56.210Z,49.06
2022-08-22T09:15:58.426Z,48.88
2022-08-22T09:19:00.780Z,49.77
2022-08-22T09:22:00.430Z,48.58
2022-08-22T09:25:06.073Z,48.38
2022-08-22T09:27:38.995Z,48.98
2022-08-22T09:30:11.940Z,49.71
2022-08-22T09:32:54.546Z,49.31
2022-08-22T09:35:34.973Z,50.54
2022-08-22T09:38:26.803Z,50.99
2022-08-22T09:41:04.865Z,49.74
2022-08-22T09:43:39.947Z,49.27
2022-08-22T09:46:19.627Z,49.71
2022-08-22T09:49:01.136Z,51.31
2022-08-22T09:51:38.702Z,51.89
2022-08-22T09:54:22.061Z,52.41
2022-08-22T09:56:59.026Z,52.26
2022-08-22T09:59:42.690Z,51.94
2022-08-22T10:02:29.499Z,52.88
2022-08-22T10:05:04.184Z,53.11
2022-08-22T10:07:52.800Z,53.63
2022-08-22T10:10:35.812Z,54.57
2022-08-22T10:13:11.648Z,53.68
2022-08-22T10:15:50.338Z,53.27
2022-08-22T10:18:33.369Z,52.94
2022-08-22T10:21:12.077Z,54.33
2022-08-22T10:23:46.401Z,53.09
2022-08-22T10:26:29.177Z,54.26
2022-08-22T10:29:08.212Z,54.69
2022-08-22T10:31:58.936Z,53.30
2022-08-22T10:34:31.777Z,51.43
2022-08-22T10:37:11.717Z,48.38
2022-08-22T10:39:46.519Z,49.44
2022-08-22T10:42:27.887Z,47.42
2022-08-22T10:45:16.009Z,48.53
2022-08-22T10:48:31.561Z,47.36
2022-08-22T10:51:37.097Z,45.62
2022-08-22T10:54:26.857Z,45.96
2022-08-22T10:57:09.600Z,47.09
2022-08-22T10:59:45.733Z,46.91
2022-08-22T11:02:34.593Z,45.68
2022-08-22T11:05:24.463Z,46.66
2022-08-22T11:08:17.361Z,46.89
2022-08-22T11:11:02.339Z,45.21
2022-08-22T11:13:43.326Z,45.86
2022-08-22T11:16:23.881Z,46.22
2022-08-22T11:19:16.035Z,43.81
2022-08-22T11:22:02.061Z,45.22
2022-08-22T11:25:11.365Z,43.10
2022-08-22T11:27:54.661Z,42.85
2022-08-22T11:30:31.820Z,43.36
2022-08-22T11:33:17.994Z,42.61
2022-08-22T11:35:55.978Z,42.02
2022-08-22T11:38:32.715Z,41.17
2022-08-22T11:41:05.701Z,44.50
2022-08-22T11:43:46.788Z,41.78
2022-08-22T11:46:19.998Z,43.46
2022-08-22T11:49:06.233Z,42.61
2022-08-22T11:52:04.709Z,41.45
2022-08-22T11:54:51.921Z,43.09
2022-08-22T11:57:30.529Z,42.41
2022-08-22T12:00:15.095Z,42.52
2022-08-22T12:02:58.528Z,43.23
2022-08-22T12:05:33.536Z,43.01
2022-08-22T12:08:08.365Z,43.19
2022-08-22T12:10:44.225Z,43.02
2022-08-22T12:13:20.447Z,43.25
2022-08-22T12:16:15.566Z,41.60
2022-08-22T12:18:52.977Z,41.84
2022-08-22T12:22:05.022Z,41.64
2022-08-22T12:24:46.542Z,42.93
2022-08-22T12:27:28.781Z,42.89
2022-08-22T12:30:12.870Z,43.06
2022-08-22T12:33:20.761Z,42.10
2022-08-22T12:36:18.165Z,43.04
2022-08-22T12:39:01.494Z,42.46
2022-08-22T12:42:00.023Z,43.18
2022-08-22T12:44:42.345Z,43.87
2022-08-22T12:47:23.272Z,43.62
2022-08-22T12:50:12.307Z,44.77
2022-08-22T12:53:10.064Z,44.20
2022-08-22T12:55:50.715Z,44.33
2022-08-22T12:58:33.896Z,45.40
2022-08-22T13:01:05.464Z,45.15
2022-08-22T13:03:37.976Z,45.59
2022-08-22T13:06:27.165Z,46.73
2022-08-22T13:08:56.352Z,46.77
2022-08-22T13:11:24.510Z,46.60
2022-08-22T13:13:57.269Z,46.94
2022-08-22T13:16:27.335Z,46.50
2022-08-22T13:18:58.238Z,47.19
2022-08-22T13:21:31.552Z,47.62
2022-08-22T13:24:10.786Z,47.52
2022-08-22T13:26:49.170Z,46.93
2022-08-22T13:29:39.667Z,47.46
2022-08-22T13:32:17.341Z,47.32
2022-08-22T13:34:49.119Z,48.16
2022-08-22T13:37:24.562Z,49.74
2022-08-22T13:40:01.822Z,49.02
2022-08-22T13:42:33.360Z,49.02
2022-08-22T13:45:05.709Z,48.72
2022-08-22T13:47:39.295Z,48.94
2022-08-22T13:50:14.017Z,49.22
2022-08-22T13:52:52.588Z,49.04
2022-08-22T13:55:30.687Z,49.10
2022-08-22T13:58:07.604Z,49.47
2022-08-22T14:01:10.238Z,49.16
2022-08-22T14:03:45.458Z,49.35
2022-08-22T14:06:35.313Z,50.07
2022-08-22T14:09:15.193Z,49.69
2022-08-22T14:11:49.872Z,48.95
2022-08-22T14:14:26.415Z,49.10
2022-08-22T14:16:56.680Z,49.05
2022-08-22T14:19:29.782Z,49.33
2022-08-22T14:22:00.493Z,48.99
2022-08-22T14:24:31.921Z,49.00
2022-08-22T14:27:05.342Z,48.72
2022-08-22T14:29:41.823Z,48.67
2022-08-22T14:32:32.554Z,48.81
2022-08-22T14:35:10.673Z,49.37
2022-08-22T14:37:49.552Z,50.97
2022-08-22T14:40:22.576Z,51.25
2022-08-22T14:42:56.729Z,51.94
2022-08-22T14:45:28.829Z,52.37
2022-08-22T14:48:31.698Z,52.65
2022-08-22T14:51:00.929Z,52.93
2022-08-22T14:53:34.918Z,52.81
2022-08-22T14:56:07.228Z,53.37
2022-08-22T14:58:46.675Z,53.56
2022-08-22T15:01:17.285Z,53.53
2022-08-22T15:03:51.988Z,52.69
2022-08-22T15:06:35.061Z,52.67
2022-08-22T15:09:07.791Z,51.74
2022-08-22T15:11:37.639Z,51.71
2022-08-22T15:14:22.885Z,51.50
2022-08-22T15:16:55.281Z,51.38
2022-08-22T15:19:27.239Z,51.68
2022-08-22T15:22:13.487Z,51.91
2022-08-22T15:24:44.467Z,51.88
2022-08-22T15:27:12.860Z,52.00
2022-08-22T15:29:51.601Z,51.98
2022-08-22T15:32:22.145Z,52.25
2022-08-22T15:34:52.462Z,52.70
2022-08-22T15:37:32.919Z,53.30
2022-08-22T15:40:08.111Z,52.77
2022-08-22T15:42:40.989Z,53.61
2022-08-22T15:45:22.313Z,54.20
2022-08-22T15:47:53.073Z,55.07
2022-08-22T15:50:32.157Z,55.13
2022-08-22T15:53:20.487Z,55.36
2022-08-22T15:56:25.546Z,55.03
2022-08-22T15:59:30.402Z,55.45
2022-08-22T16:02:28.768Z,55.75
2022-08-22T16:05:19.328Z,56.16
2022-08-22T16:07:50.578Z,56.33
2022-08-22T16:10:32.533Z,57.16
2022-08-22T16:13:33.553Z,57.68
2022-08-22T16:16:05.280Z,57.92
2022-08-22T16:19:16.026Z,58.80
2022-08-22T16:22:06.117Z,59.19
2022-08-22T16:24:55.997Z,59.71
2022-08-22T16:27:26.905Z,59.41
2022-08-22T16:30:06.491Z,60.76
2022-08-22T16:32:34.922Z,60.48
2022-08-22T16:35:02.677Z,61.00
2022-08-22T16:37:50.164Z,61.24
2022-08-22T16:40:26.117Z,60.73
2022-08-22T16:43:13.896Z,60.70
2022-08-22T16:45:45.338Z,61.92
2022-08-22T16:48:33.523Z,61.61
2022-08-22T16:51:22.463Z,61.95
2022-08-22T16:54:11.177Z,61.55
2022-08-22T16:57:09.383Z,62.10
2022-08-22T16:59:59.800Z,62.24
2022-08-22T17:02:49.145Z,63.01
2022-08-22T17:05:29.851Z,63.27
2022-08-22T17:08:12.034Z,64.57
2022-08-22T17:10:52.396Z,65.52
2022-08-22T17:13:32.792Z,66.28
2022-08-22T17:16:24.690Z,66.61
2022-08-22T17:19:09.117Z,66.94
2022-08-22T17:21:50.608Z,68.20
2022-08-22T17:24:34.110Z,68.13
2022-08-22T17:27:08.925Z,69.20
2022-08-22T17:29:52.023Z,69.93
2022-08-22T17:32:27.648Z,70.95
2022-08-22T17:35:13.443Z,71.20
2022-08-22T17:37:47.610Z,71.24
2022-08-22T17:40:30.437Z,71.44
2022-08-22T17:43:10.976Z,71.55
2022-08-22T17:45:50.173Z,71.11
2022-08-22T17:48:21.835Z,71.11
2022-08-22T17:50:54.749Z,71.39
2022-08-22T17:53:37.377Z,71.71
2022-08-22T17:56:15.479Z,71.17
2022-08-22T17:58:49.720Z,71.64
2022-08-22T18:01:38.174Z,71.73
2022-08-22T18:04:10.275Z,72.38
2022-08-22T18:06:47.993Z,72.35
2022-08-22T18:09:32.265Z,72.57
2022-08-22T18:12:05.657Z,73.74
2022-08-22T18:14:45.746Z,74.15
2022-08-22T18:17:18.813Z,76.16
2022-08-22T18:19:57.335Z,76.54
2022-08-22T18:22:31.538Z,77.08
2022-08-22T18:25:04.455Z,77.75
2022-08-22T18:27:38.093Z,77.63
2022-08-22T18:30:17.619Z,78.97
2022-08-22T18:32:55.482Z,79.50
2022-08-22T18:35:28.930Z,80.43
2022-08-22T18:38:03.420Z,80.49
2022-08-22T18:40:53.244Z,80.33
2022-08-22T18:43:26.982Z,80.77
2022-08-22T18:46:03.560Z,80.97
2022-08-22T18:48:54.307Z,82.85
2022-08-22T18:51:30.653Z,82.67
2022-08-22T18:54:19.282Z,82.77
2022-08-22T18:56:51.509Z,82.96
2022-08-22T18:59:41.436Z,83.10
2022-08-22T19:02:41.270Z,82.68
2022-08-22T19:05:33.393Z,83.19
2022-08-22T19:08:24.833Z,83.12
2022-08-22T19:11:06.809Z,83.06
2022-08-22T19:13:58.400Z,82.96
2022-08-22T19:16:54.582Z,83.04
2022-08-22T19:19:53.865Z,83.33
2022-08-22T19:22:25.151Z,83.21
2022-08-22T19:25:17.968Z,83.47
2022-08-22T19:28:07.161Z,83.60
2022-08-22T19:30:44.062Z,83.66
2022-08-22T19:33:13.067Z,83.38
2022-08-22T19:36:07.177Z,83.46
2022-08-22T19:39:00.873Z,83.58
2022-08-22T19:41:52.443Z,83.33
2022-08-22T19:44:35.132Z,83.41
2022-08-22T19:47:09.298Z,83.45
2022-08-22T19:49:39.710Z,83.37
2022-08-22T19:52:22.068Z,83.72
2022-08-22T19:54:57.780Z,84.44
2022-08-22T19:57:40.070Z,84.38
2022-08-22T20:00:12.953Z,84.72
2022-08-22T20:02:56.513Z,84.75
2022-08-22T20:05:30.877Z,84.83
2022-08-22T20:08:11.708Z,85.21
2022-08-22T20:10:51.593Z,85.38
2022-08-22T20:13:23.284Z,85.77
2022-08-22T20:16:16.250Z,85.53
2022-08-22T20:19:07.821Z,85.89
2022-08-22T20:21:44.321Z,86.20
2022-08-22T20:24:17.376Z,86.50
2022-08-22T20:27:12.335Z,87.26
2022-08-22T20:29:39.645Z,87.18
2022-08-22T20:32:07.868Z,87.60
2022-08-22T20:34:40.374Z,88.35
2022-08-22T20:37:29.530Z,88.38
2022-08-22T20:40:25.762Z,88.39
2022-08-22T20:43:10.950Z,89.09
2022-08-22T20:45:50.107Z,89.07
2022-08-22T20:48:17.717Z,89.13
2022-08-22T20:50:45.312Z,89.54
2022-08-22T20:53:17.512Z,89.86
2022-08-22T20:55:54.982Z,89.80
2022-08-22T20:58:25.391Z,89.77
2022-08-22T21:01:00.061Z,89.82
2022-08-22T21:03:36.215Z,90.65
2022-08-22T21:06:11.960Z,90.82
2022-08-22T21:08:40.594Z,91.30
2022-08-22T21:11:27.957Z,90.66
2022-08-22T21:13:55.841Z,90.77
2022-08-22T21:16:31.667Z,91.39
2022-08-22T21:19:01.531Z,91.38
2022-08-22T21:21:30.978Z,92.40
2022-08-22T21:24:01.865Z,92.21
2022-08-22T21:26:33.795Z,92.37
2022-08-22T21:29:06.296Z,92.59
2022-08-22T21:31:37.730Z,92.45
2022-08-22T21:34:05.782Z,93.61
2022-08-22T21:36:38.889Z,93.67
2022-08-22T21:39:13.588Z,93.61
2022-08-22T21:41:45.086Z,93.58
2022-08-22T21:44:25.933Z,93.78
2022-08-22T21:46:54.477Z,94.36
2022-08-22T21:49:25.346Z,94.37
2022-08-22T21:51:54.050Z,95.17
2022-08-22T21:54:33.143Z,95.45
2022-08-22T21:57:21.221Z,95.78
2022-08-22T21:59:59.649Z,95.55
2022-08-22T22:02:35.308Z,96.05
2022-08-22T22:05:09.837Z,96.45
2022-08-22T22:07:40.131Z,95.90
2022-08-22T22:10:10.558Z,97.03
2022-08-22T22:12:41.585Z,96.62
2022-08-22T22:15:12.037Z,96.80
2022-08-22T22:17:39.638Z,96.82
2022-08-22T22:20:08.868Z,96.63
2022-08-22T22:22:37.201Z,96.77
2022-08-22T22:25:41.124Z,96.96
2022-08-22T22:28:05.126Z,97.70
2022-08-22T22:30:32.712Z,98.50
2022-08-22T22:33:00.336Z,99.06
2022-08-22T22:35:28.121Z,98.95
2022-08-22T22:37:56.267Z,99.62
2022-08-22T22:40:24.849Z,99.38
2022-08-22T22:42:52.476Z,99.08
2022-08-22T22:45:21.394Z,99.77
2022-08-22T22:47:48.988Z,99.49
2022-08-22T22:50:16.552Z,99.11
2022-08-22T22:52:44.188Z,99.27
2022-08-22T22:55:12.077Z,100.00
2022-08-22T22:57:57.794Z,100.00
2022-08-22T23:00:30.846Z,99.83
2022-08-22T23:02:59.419Z,99.94
2022-08-22T23:05:26.996Z,99.95
2022-08-22T23:07:54.570Z,100.00
2022-08-22T23:10:22.385Z,100.00
2022-08-22T23:12:50.011Z,99.70
2022-08-22T23:15:17.576Z,100.00
2022-08-22T23:17:46.845Z,100.00
2022-08-22T23:20:14.648Z,100.00
2022-08-22T23:22:42.864Z,100.00
2022-08-22T23:25:10.688Z,100.00
2022-08-22T23:27:38.468Z,100.00
2022-08-22T23:30:08.530Z,100.00
2022-08-22T23:32:36.721Z,100.00
2022-08-22T23:35:06.512Z,100.00
2022-08-22T23:37:34.409Z,100.00
2022-08-22T23:40:02.254Z,100.00
2022-08-22T23:42:30.073Z,99.99
2022-08-22T23:44:57.656Z,100.00
2022-08-22T23:47:25.337Z,99.92
2022-08-22T23:49:53.120Z,99.55
2022-08-22T23:52:22.100Z,99.79
2022-08-22T23:54:54.310Z,99.84
2022-08-22T23:57:27.463Z,99.66
2022-08-22T23:59:57.959Z,99.75
